Berlin — 9HA2295 — position and weather

sailwx.info

Track history (hours):
 
Tides and Currents Weather Stations Pressure Air Temp Water Temp Dewpoint Dewpoint Depression Visibility Wind Speed Wind Dir Waves Ship Positions

Berlin

Last reported at 2015-Feb-17 23:12 UTC. Time now 2015-Feb-26 23:27 UTC.
Position N 38°05' E 022°44'.
Warning: this ship's position is 9 days out of date.

Length 140 m; draft 5 m.

Type: Passenger vessel. MMSI: 248277000.

Date/timePositionNaut miles runAvg speedWind from/ knotsBaromVisibWave heightAir tempDewpointWater temp
2015-Feb-17 23:12N 38°05' E 022°44'10 5.6
2015-Feb-17 21:27N 37°59' E 022°54'8 4.1
2015-Feb-17 19:24N 37°54' E 023°02'16 8.9
2015-Feb-17 17:33N 37°51' E 023°23'9 9.4
2015-Feb-17 16:33N 37°53' E 023°34'5 4.2
2015-Feb-17 15:28N 37°56' E 023°38'0 0.0
2015-Feb-17 14:28N 37°56' E 023°38'0 0.0
2015-Feb-17 13:31N 37°56' E 023°38'0 0.0
2015-Feb-17 12:28N 37°56' E 023°38'0 0.0
2015-Feb-17 11:31N 37°56' E 023°38'0 0.0
2015-Feb-17 10:31N 37°56' E 023°38'0 0.0
2015-Feb-17 09:31N 37°56' E 023°38'0 0.0
2015-Feb-17 08:31N 37°56' E 023°38'0 0.0
2015-Feb-17 07:31N 37°56' E 023°38'1 0.7
2015-Feb-17 06:33N 37°56' E 023°37'6 6.5
2015-Feb-17 05:33N 37°50' E 023°39'1312.9
2015-Feb-17 04:33N 37°38' E 023°46'129 4.8
2015-Feb-16 01:32N 36°32' E 026°05'  
2015-Feb-13 13:29N 34°39' E 032°26'1213.1
2015-Feb-13 12:33N 34°36' E 032°40'1312.9
2015-Feb-13 11:33N 34°32' E 032°55'9 9.1
2015-Feb-13 10:33N 34°38' E 033°03'2 2.1
2015-Feb-13 09:32N 34°39' E 033°01'0 0.0
2015-Feb-13 08:32N 34°39' E 033°01'0 0.0
2015-Feb-13 07:32N 34°39' E 033°01'0 0.0
2015-Feb-13 06:32N 34°39' E 033°01'0 0.0
2015-Feb-13 05:32N 34°39' E 033°01'0 0.0
2015-Feb-13 04:32N 34°39' E 033°01'1 1.2
2015-Feb-13 03:34N 34°39' E 033°02'4 3.6
2015-Feb-13 02:34N 34°36' E 033°05'9 9.3
2015-Feb-13 01:34N 34°27' E 033°05'1010.5
2015-Feb-13 00:34N 34°17' E 033°03'  
Track history (hours):
 
Tides and Currents Weather Stations Pressure Air Temp Water Temp Dewpoint Dewpoint Depression Visibility Wind Speed Wind Dir Waves Ship Positions

Berlin

Last reported at 2015-Feb-17 23:12 UTC. Time now 2015-Feb-26 23:27 UTC.
Position N 38°05' E 022°44'.
Warning: this ship's position is 9 days out of date.

Length 140 m; draft 5 m.

Type: Passenger vessel. MMSI: 248277000.

Date/timePositionNaut miles runAvg speedWind from/ knotsBaromVisibWave heightAir tempDewpointWater temp
2015-Feb-17 23:12N 38°05' E 022°44'10 5.6
2015-Feb-17 21:27N 37°59' E 022°54'8 4.1
2015-Feb-17 19:24N 37°54' E 023°02'16 8.9
2015-Feb-17 17:33N 37°51' E 023°23'9 9.4
2015-Feb-17 16:33N 37°53' E 023°34'5 4.2
2015-Feb-17 15:28N 37°56' E 023°38'0 0.0
2015-Feb-17 14:28N 37°56' E 023°38'0 0.0
2015-Feb-17 13:31N 37°56' E 023°38'0 0.0
2015-Feb-17 12:28N 37°56' E 023°38'0 0.0
2015-Feb-17 11:31N 37°56' E 023°38'0 0.0
2015-Feb-17 10:31N 37°56' E 023°38'0 0.0
2015-Feb-17 09:31N 37°56' E 023°38'0 0.0
2015-Feb-17 08:31N 37°56' E 023°38'0 0.0
2015-Feb-17 07:31N 37°56' E 023°38'1 0.7
2015-Feb-17 06:33N 37°56' E 023°37'6 6.5
2015-Feb-17 05:33N 37°50' E 023°39'1312.9
2015-Feb-17 04:33N 37°38' E 023°46'129 4.8
2015-Feb-16 01:32N 36°32' E 026°05'  
2015-Feb-13 13:29N 34°39' E 032°26'1213.1
2015-Feb-13 12:33N 34°36' E 032°40'1312.9
2015-Feb-13 11:33N 34°32' E 032°55'9 9.1
2015-Feb-13 10:33N 34°38' E 033°03'2 2.1
2015-Feb-13 09:32N 34°39' E 033°01'0 0.0
2015-Feb-13 08:32N 34°39' E 033°01'0 0.0
2015-Feb-13 07:32N 34°39' E 033°01'0 0.0
2015-Feb-13 06:32N 34°39' E 033°01'0 0.0
2015-Feb-13 05:32N 34°39' E 033°01'0 0.0
2015-Feb-13 04:32N 34°39' E 033°01'1 1.2
2015-Feb-13 03:34N 34°39' E 033°02'4 3.6
2015-Feb-13 02:34N 34°36' E 033°05'9 9.3
2015-Feb-13 01:34N 34°27' E 033°05'1010.5
2015-Feb-13 00:34N 34°17' E 033°03'  

Dump ship's entire track history